createdAt,value
2018-02-12T00:02:00.029Z,1.70
2018-02-12T00:04:29.328Z,1.10
2018-02-12T00:06:58.682Z,1.40
2018-02-12T00:09:27.822Z,1.62
2018-02-12T00:11:57.461Z,1.85
2018-02-12T00:14:26.713Z,1.12
2018-02-12T00:16:55.934Z,0.93
2018-02-12T00:19:25.373Z,1.33
2018-02-12T00:21:55.512Z,1.20
2018-02-12T00:24:24.724Z,1.00
2018-02-12T00:27:01.798Z,0.93
2018-02-12T00:29:31.179Z,1.08
2018-02-12T00:32:02.417Z,0.90
2018-02-12T00:34:31.729Z,0.70
2018-02-12T00:37:01.018Z,0.90
2018-02-12T00:39:31.351Z,0.80
2018-02-12T00:42:00.946Z,0.62
2018-02-12T00:44:30.214Z,0.80
2018-02-12T00:46:59.577Z,0.60
2018-02-12T00:49:28.997Z,0.70
2018-02-12T00:51:58.310Z,0.70
2018-02-12T00:54:28.447Z,0.70
2018-02-12T00:57:08.705Z,1.05
2018-02-12T00:59:38.182Z,0.80
2018-02-12T01:02:07.460Z,1.00
2018-02-12T01:04:36.759Z,0.80
2018-02-12T01:07:06.036Z,1.00
2018-02-12T01:09:35.368Z,1.27
2018-02-12T01:12:04.616Z,1.10
2018-02-12T01:14:36.777Z,1.40
2018-02-12T01:17:07.207Z,1.23
2018-02-12T01:19:49.308Z,1.50
2018-02-12T01:22:20.408Z,1.30
2018-02-12T01:24:53.565Z,1.20
2018-02-12T01:27:23.002Z,1.58
2018-02-12T01:29:58.669Z,1.60
2018-02-12T01:32:28.092Z,1.10
2018-02-12T01:37:47.268Z,0.88
2018-02-12T01:40:16.373Z,0.80
2018-02-12T01:42:49.601Z,0.88
2018-02-12T01:45:19.454Z,0.82
2018-02-12T01:47:49.126Z,1.00
2018-02-12T01:50:19.381Z,1.00
2018-02-12T01:52:48.593Z,1.10
2018-02-12T01:55:17.507Z,1.00
2018-02-12T01:57:45.512Z,0.80
2018-02-12T02:00:28.778Z,0.90
2018-02-12T02:02:56.479Z,1.35
2018-02-12T02:05:24.055Z,1.15
2018-02-12T02:07:51.613Z,0.90
2018-02-12T02:13:13.015Z,1.20
2018-02-12T02:15:40.570Z,1.23
2018-02-12T02:18:08.205Z,1.65
2018-02-12T02:20:35.811Z,1.15
2018-02-12T02:23:03.452Z,1.20
2018-02-12T02:25:31.064Z,1.10
2018-02-12T02:27:58.707Z,1.12
2018-02-12T02:30:26.349Z,0.90
2018-02-12T02:32:54.285Z,1.37
2018-02-12T02:35:22.377Z,1.10
2018-02-12T02:37:50.460Z,1.20
2018-02-12T02:40:18.022Z,1.20
2018-02-12T02:42:45.655Z,1.30
2018-02-12T02:45:14.721Z,1.10
2018-02-12T02:47:42.336Z,1.10
2018-02-12T02:50:09.899Z,1.20
2018-02-12T02:52:37.525Z,1.10
2018-02-12T02:55:05.112Z,1.33
2018-02-12T02:57:32.738Z,1.80
2018-02-12T03:00:00.324Z,1.65
2018-02-12T03:02:34.714Z,1.35
2018-02-12T03:05:02.497Z,1.30
2018-02-12T03:07:51.768Z,1.27
2018-02-12T03:10:19.532Z,1.10
2018-02-12T03:12:47.112Z,0.95
2018-02-12T03:15:20.607Z,1.52
2018-02-12T03:17:48.243Z,1.45
2018-02-12T03:20:15.815Z,0.95
2018-02-12T03:22:43.549Z,1.45
2018-02-12T03:25:12.833Z,1.30
2018-02-12T03:27:47.179Z,1.05
2018-02-12T03:30:14.920Z,1.20
2018-02-12T03:32:42.952Z,1.60
2018-02-12T03:35:10.586Z,1.40
2018-02-12T03:37:38.211Z,1.17
2018-02-12T03:40:05.779Z,1.70
2018-02-12T03:42:33.342Z,1.40
2018-02-12T03:45:02.201Z,0.90
2018-02-12T03:47:29.909Z,0.80
2018-02-12T03:49:58.271Z,1.00
2018-02-12T03:52:25.924Z,1.80
2018-02-12T03:54:53.557Z,1.67
2018-02-12T03:57:22.299Z,1.58
2018-02-12T03:59:50.041Z,1.62
2018-02-12T04:02:17.811Z,1.37
2018-02-12T04:04:45.434Z,1.50
2018-02-12T04:07:13.113Z,1.25
2018-02-12T04:09:41.941Z,1.80
2018-02-12T04:12:09.657Z,1.27
2018-02-12T04:14:37.648Z,2.97
2018-02-12T04:17:05.615Z,1.20
2018-02-12T04:19:33.371Z,1.77
2018-02-12T04:22:01.387Z,1.80
2018-02-12T04:24:29.191Z,1.23
2018-02-12T04:26:56.822Z,2.10
2018-02-12T04:29:25.244Z,1.70
2018-02-12T04:31:52.906Z,1.30
2018-02-12T04:34:20.513Z,1.42
2018-02-12T04:36:48.156Z,1.73
2018-02-12T04:39:19.788Z,1.58
2018-02-12T04:41:47.451Z,1.60
2018-02-12T04:44:15.290Z,1.10
2018-02-12T04:46:43.174Z,1.00
2018-02-12T04:49:10.913Z,1.30
2018-02-12T04:51:39.310Z,1.10
2018-02-12T04:54:07.776Z,1.48
2018-02-12T04:56:35.460Z,1.40
2018-02-12T04:59:03.126Z,1.37
2018-02-12T05:01:30.773Z,1.00
2018-02-12T05:03:58.444Z,1.80
2018-02-12T05:06:26.120Z,1.40
2018-02-12T05:08:53.756Z,1.10
2018-02-12T05:11:21.457Z,1.85
2018-02-12T05:13:49.197Z,1.17
2018-02-12T05:16:17.603Z,1.30
2018-02-12T05:18:46.042Z,1.33
2018-02-12T05:21:13.709Z,1.42
2018-02-12T05:23:41.368Z,2.00
2018-02-12T05:26:09.028Z,1.75
2018-02-12T05:28:36.671Z,1.52
2018-02-12T05:31:10.028Z,1.90
2018-02-12T05:33:37.646Z,2.67
2018-02-12T05:36:05.305Z,1.80
2018-02-12T05:38:33.065Z,1.60
2018-02-12T05:41:00.674Z,2.00
2018-02-12T05:43:28.281Z,1.80
2018-02-12T05:45:55.988Z,1.50
2018-02-12T05:48:23.604Z,1.83
2018-02-12T05:50:51.283Z,1.60
2018-02-12T05:53:18.927Z,1.37
2018-02-12T05:55:46.568Z,1.92
2018-02-12T05:58:14.198Z,1.98
2018-02-12T06:00:41.884Z,2.08
2018-02-12T06:03:11.493Z,1.50
2018-02-12T06:05:42.216Z,2.05
2018-02-12T06:08:10.640Z,2.05
2018-02-12T06:10:38.276Z,1.10
2018-02-12T06:13:05.997Z,1.75
2018-02-12T06:15:33.622Z,1.80
2018-02-12T06:18:01.261Z,1.65
2018-02-12T06:20:29.680Z,1.40
2018-02-12T06:22:57.391Z,1.45
2018-02-12T06:25:25.102Z,1.50
2018-02-12T06:27:52.766Z,1.40
2018-02-12T06:30:20.419Z,1.55
2018-02-12T06:32:48.378Z,1.90
2018-02-12T06:35:16.764Z,1.48
2018-02-12T06:37:44.384Z,1.70
2018-02-12T06:40:11.986Z,1.58
2018-02-12T06:42:39.755Z,1.50
2018-02-12T06:45:19.094Z,1.90
2018-02-12T06:47:46.727Z,1.70
2018-02-12T06:50:14.343Z,1.70
2018-02-12T06:52:42.088Z,1.70
2018-02-12T06:55:12.837Z,2.08
2018-02-12T06:57:40.712Z,1.92
2018-02-12T07:00:09.212Z,2.20
2018-02-12T07:02:36.880Z,2.08
2018-02-12T07:05:04.468Z,2.00
2018-02-12T07:07:32.806Z,2.17
2018-02-12T07:10:00.431Z,2.35
2018-02-12T07:12:28.062Z,2.62
2018-02-12T07:15:22.258Z,2.10
2018-02-12T07:17:49.945Z,2.28
2018-02-12T07:20:17.511Z,3.30
2018-02-12T07:22:45.845Z,2.50
2018-02-12T07:25:13.400Z,3.33
2018-02-12T07:27:40.979Z,2.62
2018-02-12T07:30:08.549Z,2.83
2018-02-12T07:32:36.131Z,2.85
2018-02-12T07:35:03.691Z,3.15
2018-02-12T07:37:31.297Z,2.12
2018-02-12T07:40:00.508Z,2.90
2018-02-12T07:42:30.342Z,3.05
2018-02-12T07:44:59.612Z,2.70
2018-02-12T07:47:28.838Z,2.55
2018-02-12T07:49:58.207Z,2.55
2018-02-12T07:52:27.403Z,2.62
2018-02-12T07:54:56.608Z,2.80
2018-02-12T07:57:25.821Z,2.80
2018-02-12T07:59:55.103Z,4.20
2018-02-12T08:02:24.350Z,3.03
2018-02-12T08:04:53.597Z,2.87
2018-02-12T08:07:22.871Z,3.22
2018-02-12T08:09:52.059Z,2.90
2018-02-12T08:12:21.249Z,3.65
2018-02-12T08:14:50.512Z,3.70
2018-02-12T08:17:19.715Z,3.10
2018-02-12T08:19:49.955Z,3.20
2018-02-12T08:22:19.176Z,3.70
2018-02-12T08:24:48.415Z,3.20
2018-02-12T08:27:17.640Z,3.70
2018-02-12T08:29:46.847Z,3.55
2018-02-12T08:32:16.063Z,3.30
2018-02-12T08:34:45.281Z,3.83
2018-02-12T08:37:14.791Z,3.37
2018-02-12T08:39:44.004Z,3.67
2018-02-12T08:42:13.274Z,3.53
2018-02-12T08:44:42.475Z,3.50
2018-02-12T08:47:11.754Z,4.60
2018-02-12T08:49:40.975Z,19.08
2018-02-12T08:52:10.236Z,5.10
2018-02-12T09:00:15.311Z,2.35
2018-02-12T09:02:44.502Z,2.17
2018-02-12T09:05:13.739Z,2.50
2018-02-12T09:07:42.968Z,2.20
2018-02-12T09:10:18.671Z,2.20
2018-02-12T09:12:47.945Z,2.50
2018-02-12T09:15:17.158Z,2.25
2018-02-12T09:17:46.346Z,2.58
2018-02-12T09:20:19.340Z,2.05
2018-02-12T09:22:48.596Z,2.28
2018-02-12T09:25:17.815Z,1.50
2018-02-12T09:27:47.018Z,1.90
2018-02-12T09:30:16.255Z,2.00
2018-02-12T09:32:45.487Z,1.90
2018-02-12T09:35:14.679Z,2.05
2018-02-12T09:37:43.947Z,2.72
2018-02-12T09:40:15.628Z,2.30
2018-02-12T09:42:44.861Z,2.17
2018-02-12T09:45:14.100Z,2.10
2018-02-12T09:47:43.303Z,2.45
2018-02-12T09:50:12.518Z,2.60
2018-02-12T09:52:41.719Z,1.87
2018-02-12T09:55:10.978Z,2.58
2018-02-12T09:57:40.217Z,1.65
2018-02-12T10:00:09.448Z,2.10
2018-02-12T10:02:38.649Z,2.80
2018-02-12T10:05:07.867Z,2.50
2018-02-12T10:07:37.128Z,4.53
2018-02-12T10:10:06.330Z,2.20
2018-02-12T10:12:35.546Z,3.55
2018-02-12T10:15:04.759Z,2.35
2018-02-12T10:17:34.022Z,3.25
2018-02-12T10:20:03.215Z,1.85
2018-02-12T10:22:32.459Z,2.03
2018-02-12T10:25:01.663Z,1.40
2018-02-12T10:27:30.867Z,1.52
2018-02-12T10:30:00.187Z,2.00
2018-02-12T10:32:29.439Z,1.70
2018-02-12T10:34:58.662Z,1.27
2018-02-12T10:37:27.864Z,1.83
2018-02-12T10:39:57.083Z,1.87
2018-02-12T10:42:26.290Z,2.33
2018-02-12T10:44:55.523Z,1.55
2018-02-12T10:47:24.719Z,2.00
2018-02-12T10:49:53.940Z,1.50
2018-02-12T10:52:23.167Z,1.50
2018-02-12T10:54:52.505Z,1.30
2018-02-12T10:57:21.703Z,1.75
2018-02-12T10:59:50.930Z,1.42
2018-02-12T11:02:20.153Z,1.58
2018-02-12T11:04:49.349Z,2.20
2018-02-12T11:07:18.618Z,1.40
2018-02-12T11:09:47.859Z,1.80
2018-02-12T11:12:17.083Z,1.50
2018-02-12T11:14:46.297Z,1.50
2018-02-12T11:17:15.502Z,1.42
2018-02-12T11:19:44.719Z,1.20
2018-02-12T11:22:13.917Z,1.62
2018-02-12T11:24:43.145Z,1.67
2018-02-12T11:27:12.718Z,1.30
2018-02-12T11:29:41.923Z,1.77
2018-02-12T11:32:11.132Z,1.80
2018-02-12T11:34:40.353Z,1.62
2018-02-12T11:37:09.876Z,1.45
2018-02-12T11:39:39.090Z,2.30
2018-02-12T11:42:08.312Z,1.70
2018-02-12T11:44:37.522Z,1.40
2018-02-12T11:47:06.732Z,1.90
2018-02-12T11:49:35.942Z,1.62
2018-02-12T11:52:05.151Z,1.48
2018-02-12T11:54:34.366Z,1.70
2018-02-12T11:57:03.582Z,1.40
2018-02-12T11:59:32.800Z,1.30
2018-02-12T12:02:02.010Z,1.70
2018-02-12T12:04:31.235Z,1.67
2018-02-12T12:07:00.469Z,2.40
2018-02-12T12:09:29.674Z,3.35
2018-02-12T12:11:58.899Z,3.53
2018-02-12T12:14:28.103Z,2.40
2018-02-12T12:16:57.307Z,2.40
2018-02-12T12:19:26.518Z,2.80
2018-02-12T12:21:55.738Z,2.80
2018-02-12T12:24:24.945Z,11.40
2018-02-12T12:26:54.159Z,5.68
2018-02-12T12:29:23.389Z,10.80
2018-02-12T12:31:52.621Z,16.42
2018-02-12T12:34:21.846Z,3.10
2018-02-12T12:36:51.059Z,2.25
2018-02-12T12:39:20.221Z,3.90
2018-02-12T12:41:49.431Z,1.70
2018-02-12T12:44:18.628Z,4.75
2018-02-12T12:46:47.838Z,11.73
2018-02-12T12:49:17.047Z,7.72
2018-02-12T12:51:46.259Z,1.90
2018-02-12T12:54:15.469Z,2.28
2018-02-12T12:56:44.680Z,3.00
2018-02-12T12:59:13.890Z,4.18
2018-02-12T13:01:43.108Z,2.65
2018-02-12T13:04:12.313Z,2.70
2018-02-12T13:06:41.524Z,2.15
2018-02-12T13:09:10.785Z,2.40
2018-02-12T13:11:40.001Z,2.30
2018-02-12T13:14:09.203Z,2.75
2018-02-12T13:16:38.420Z,6.70
2018-02-12T13:19:07.614Z,2.92
2018-02-12T13:21:36.839Z,2.62
2018-02-12T13:24:06.061Z,3.15
2018-02-12T13:26:35.275Z,2.75
2018-02-12T13:29:04.584Z,3.65
2018-02-12T13:31:33.873Z,2.75
2018-02-12T13:34:03.155Z,3.00
2018-02-12T13:36:32.434Z,2.30
2018-02-12T13:39:01.743Z,3.60
2018-02-12T13:41:31.052Z,2.62
2018-02-12T13:44:00.407Z,1.75
2018-02-12T13:46:29.708Z,1.75
2018-02-12T13:48:58.315Z,1.60
2018-02-12T13:51:25.991Z,1.90
2018-02-12T13:53:54.435Z,1.77
2018-02-12T13:56:22.109Z,1.67
2018-02-12T13:58:49.825Z,2.10
2018-02-12T14:01:19.511Z,1.75
2018-02-12T14:03:49.719Z,2.40
2018-02-12T14:06:19.135Z,2.33
2018-02-12T14:08:48.378Z,1.85
2018-02-12T14:11:17.611Z,2.20
2018-02-12T14:13:46.841Z,2.47
2018-02-12T14:16:16.071Z,2.30
2018-02-12T14:18:45.305Z,3.30
2018-02-12T14:21:14.502Z,1.98
2018-02-12T14:23:43.706Z,1.80
2018-02-12T14:26:12.908Z,2.00
2018-02-12T14:28:42.126Z,2.17
2018-02-12T14:31:11.336Z,2.00
2018-02-12T14:33:40.565Z,2.28
2018-02-12T14:36:09.767Z,2.12
2018-02-12T14:38:38.960Z,2.28
2018-02-12T14:41:08.160Z,2.10
2018-02-12T14:43:37.355Z,7.90
2018-02-12T14:46:06.558Z,2.50
2018-02-12T14:48:35.773Z,3.05
2018-02-12T14:51:04.981Z,3.33
2018-02-12T14:53:34.198Z,11.35
2018-02-12T14:56:03.402Z,5.22
2018-02-12T14:58:35.098Z,2.20
2018-02-12T15:01:04.370Z,2.15
2018-02-12T15:03:33.635Z,2.45
2018-02-12T15:06:02.851Z,4.87
2018-02-12T15:08:32.095Z,10.35
2018-02-12T15:11:01.299Z,8.23
2018-02-12T15:13:30.488Z,1.62
2018-02-12T15:15:58.058Z,1.77
2018-02-12T15:18:25.611Z,12.18
2018-02-12T15:20:53.298Z,2.55
2018-02-12T15:23:30.279Z,1.80
2018-02-12T15:25:58.797Z,3.65
2018-02-12T15:28:26.355Z,2.35
2018-02-12T15:30:54.138Z,2.25
2018-02-12T15:33:22.263Z,2.60
2018-02-12T15:35:49.818Z,2.55
2018-02-12T15:38:17.376Z,2.67
2018-02-12T15:40:45.060Z,2.45
2018-02-12T15:43:12.703Z,2.72
2018-02-12T15:45:40.261Z,2.72
2018-02-12T15:48:08.414Z,2.92
2018-02-12T15:50:35.991Z,2.50
2018-02-12T15:53:03.549Z,3.20
2018-02-12T15:55:31.107Z,2.95
2018-02-12T15:57:58.667Z,3.58
2018-02-12T16:00:26.244Z,3.28
2018-02-12T16:02:53.882Z,2.80
2018-02-12T16:05:21.493Z,3.00
2018-02-12T16:07:49.111Z,3.10
2018-02-12T16:10:17.428Z,2.97
2018-02-12T16:12:44.984Z,3.12
2018-02-12T16:15:12.551Z,3.28
2018-02-12T16:17:40.943Z,3.30
2018-02-12T16:20:08.538Z,3.15
2018-02-12T16:22:36.171Z,3.03
2018-02-12T16:25:04.705Z,3.47
2018-02-12T16:27:32.623Z,3.15
2018-02-12T16:30:00.325Z,3.90
2018-02-12T16:32:28.650Z,3.45
2018-02-12T16:34:56.361Z,3.80
2018-02-12T16:37:30.782Z,2.80
2018-02-12T16:39:58.336Z,3.67
2018-02-12T16:42:25.910Z,3.90
2018-02-12T16:44:53.484Z,3.72
2018-02-12T16:47:22.162Z,3.75
2018-02-12T16:49:49.797Z,4.93
2018-02-12T16:52:20.322Z,4.18
2018-02-12T16:54:47.957Z,3.15
2018-02-12T16:57:15.512Z,3.42
2018-02-12T16:59:43.163Z,2.83
2018-02-12T17:02:11.486Z,2.80
2018-02-12T17:04:39.139Z,2.83
2018-02-12T17:07:07.492Z,2.42
2018-02-12T17:09:35.207Z,1.60
2018-02-12T17:12:03.547Z,1.90
2018-02-12T17:14:31.110Z,2.03
2018-02-12T17:16:59.193Z,1.60
2018-02-12T17:19:26.836Z,2.42
2018-02-12T17:21:54.437Z,2.20
2018-02-12T17:24:22.089Z,2.20
2018-02-12T17:26:49.654Z,2.20
2018-02-12T17:29:18.007Z,2.40
2018-02-12T17:31:45.557Z,2.15
2018-02-12T17:34:13.154Z,3.30
2018-02-12T17:36:40.761Z,2.60
2018-02-12T17:39:09.116Z,3.08
2018-02-12T17:41:36.687Z,2.83
2018-02-12T17:44:05.044Z,3.15
2018-02-12T17:46:32.601Z,2.80
2018-02-12T17:49:00.159Z,3.50
2018-02-12T17:51:28.491Z,3.10
2018-02-12T17:53:56.072Z,2.78
2018-02-12T17:56:23.635Z,2.85
2018-02-12T17:58:51.207Z,2.95
2018-02-12T18:01:18.787Z,3.30
2018-02-12T18:03:46.351Z,3.55
2018-02-12T18:06:13.909Z,3.45
2018-02-12T18:08:41.487Z,3.67
2018-02-12T18:11:09.061Z,4.20
2018-02-12T18:13:36.660Z,4.30
2018-02-12T18:16:04.222Z,5.12
2018-02-12T18:18:31.827Z,5.15
2018-02-12T18:20:59.411Z,4.87
2018-02-12T18:23:27.755Z,4.70
2018-02-12T18:26:01.132Z,4.30
2018-02-12T18:28:28.697Z,4.57
2018-02-12T18:30:56.284Z,4.97
2018-02-12T18:33:23.871Z,4.30
2018-02-12T18:35:51.461Z,4.45
2018-02-12T18:38:19.204Z,5.43
2018-02-12T18:40:46.760Z,5.00
2018-02-12T18:43:14.325Z,3.62
2018-02-12T18:45:42.660Z,4.55
2018-02-12T18:48:10.263Z,4.07
2018-02-12T18:50:37.845Z,3.40
2018-02-12T18:53:06.186Z,4.05
2018-02-12T18:55:33.843Z,5.30
2018-02-12T18:58:02.258Z,3.35
2018-02-12T19:00:29.855Z,3.45
2018-02-12T19:02:57.420Z,6.20
2018-02-12T19:05:26.208Z,4.45
2018-02-12T19:07:53.796Z,4.18
2018-02-12T19:10:22.175Z,3.75
2018-02-12T19:12:49.743Z,3.40
2018-02-12T19:15:17.366Z,4.55
2018-02-12T19:17:45.687Z,3.55
2018-02-12T19:20:16.153Z,3.33
2018-02-12T19:22:46.755Z,4.18
2018-02-12T19:42:59.439Z,3.22
2018-02-12T19:45:27.800Z,3.40
2018-02-12T19:47:55.384Z,3.65
2018-02-12T19:50:23.548Z,3.25
2018-02-12T19:52:51.145Z,3.10
2018-02-12T19:55:18.715Z,3.30
2018-02-12T19:57:46.295Z,3.62
2018-02-12T20:00:13.846Z,3.17
2018-02-12T20:02:41.934Z,3.65
2018-02-12T20:05:09.619Z,3.83
2018-02-12T20:07:37.237Z,4.12
2018-02-12T20:10:04.829Z,4.10
2018-02-12T20:12:32.387Z,3.22
2018-02-12T20:14:59.952Z,4.03
2018-02-12T20:17:27.549Z,3.10
2018-02-12T20:19:55.292Z,4.50
2018-02-12T20:22:22.883Z,3.00
2018-02-12T20:24:50.469Z,3.40
2018-02-12T20:27:18.101Z,7.20
2018-02-12T20:29:46.500Z,5.05
2018-02-12T20:32:14.160Z,4.37
2018-02-12T20:34:42.651Z,3.70
2018-02-12T20:37:10.317Z,5.40
2018-02-12T20:39:37.893Z,4.90
2018-02-12T20:42:05.568Z,4.25
2018-02-12T20:44:33.932Z,3.83
2018-02-12T20:47:01.512Z,3.87
2018-02-12T20:49:29.129Z,5.55
2018-02-12T20:51:56.980Z,5.00
2018-02-12T20:54:25.391Z,4.78
2018-02-12T20:56:53.727Z,4.12
2018-02-12T20:59:21.291Z,3.62
2018-02-12T21:01:48.909Z,4.45
2018-02-12T21:04:16.526Z,4.32
2018-02-12T21:06:44.153Z,4.60
2018-02-12T21:09:11.765Z,4.12
2018-02-12T21:11:39.372Z,4.07
2018-02-12T21:14:06.958Z,4.37
2018-02-12T21:16:34.541Z,4.35
2018-02-12T21:19:02.195Z,3.95
2018-02-12T21:21:29.840Z,5.15
2018-02-12T21:23:58.193Z,4.72
2018-02-12T21:26:26.551Z,4.25
2018-02-12T21:28:54.337Z,3.87
2018-02-12T21:31:21.896Z,3.92
2018-02-12T21:33:49.534Z,4.40
2018-02-12T21:36:17.092Z,4.30
2018-02-12T21:38:45.468Z,5.05
2018-02-12T21:41:13.579Z,5.80
2018-02-12T21:43:41.906Z,5.45
2018-02-12T21:46:09.583Z,5.85
2018-02-12T21:48:38.347Z,6.62
2018-02-12T21:51:06.478Z,4.18
2018-02-12T21:53:34.587Z,5.68
2018-02-12T21:56:04.256Z,4.47
2018-02-12T21:58:39.610Z,4.70
2018-02-12T22:01:07.339Z,7.45
2018-02-12T22:03:34.928Z,8.55
2018-02-12T22:06:04.636Z,8.63
2018-02-12T22:08:34.328Z,7.47
2018-02-12T22:11:05.737Z,7.80
2018-02-12T22:13:33.451Z,8.10
2018-02-12T22:16:01.813Z,8.35
2018-02-12T22:18:29.472Z,8.90
2018-02-12T22:20:59.076Z,7.43
2018-02-12T22:23:26.710Z,7.95
2018-02-12T22:26:00.314Z,7.12
2018-02-12T22:28:41.227Z,7.75
2018-02-12T22:31:11.477Z,7.90
2018-02-12T22:33:39.312Z,11.48
2018-02-12T22:36:09.203Z,7.95
2018-02-12T22:38:39.394Z,6.90
2018-02-12T22:41:10.134Z,9.27
2018-02-12T22:43:39.843Z,8.48
2018-02-12T22:46:08.086Z,9.68
2018-02-12T22:48:35.669Z,8.60
2018-02-12T22:51:04.387Z,8.32
2018-02-12T22:53:31.973Z,10.30
2018-02-12T22:55:59.991Z,11.75
2018-02-12T22:58:28.607Z,10.38
2018-02-12T23:00:57.534Z,10.52
2018-02-12T23:03:25.171Z,10.13
2018-02-12T23:05:53.499Z,9.00
2018-02-12T23:08:24.852Z,10.27
2018-02-12T23:10:52.949Z,9.38
2018-02-12T23:13:20.560Z,9.15
2018-02-12T23:15:48.172Z,7.70
2018-02-12T23:18:16.516Z,7.70
2018-02-12T23:20:44.128Z,7.32
2018-02-12T23:23:11.795Z,9.40
2018-02-12T23:25:41.903Z,8.55
2018-02-12T23:28:09.819Z,7.82
2018-02-12T23:30:40.294Z,7.85
2018-02-12T23:33:12.840Z,9.35
2018-02-12T23:35:41.166Z,8.95
2018-02-12T23:38:08.952Z,8.60
2018-02-12T23:40:39.843Z,6.97
2018-02-12T23:43:10.039Z,9.80
2018-02-12T23:45:37.664Z,9.10
2018-02-12T23:48:05.313Z,9.27
2018-02-12T23:50:34.028Z,8.70
2018-02-12T23:53:02.633Z,7.65
2018-02-12T23:55:31.005Z,7.10
2018-02-12T23:57:59.113Z,7.37
